Time;durP1;ratioP1;P1;durP2;ratioP2;P2;SDS_P1;SDS_P2;PMS_P1;PMS_P2;Temp;Humidity;BMP_temperature;BMP_pressure;BME280_temperature;BME280_humidity;BME280_pressure;Samples;Min_cycle;Max_cycle;Signal;HPM_P1;HPM_P2
2023/05/18 00:00:22;;;;;;;6.10;1.80;;;8.60;77.40;;;;;;5112584;28;20526;-85
2023/05/18 00:02:48;;;;;;;7.40;2.05;;;8.60;77.60;;;;;;5095631;28;20031;-85
2023/05/18 00:05:14;;;;;;;6.97;2.35;;;8.60;77.90;;;;;;5112861;28;20054;-85
2023/05/18 00:07:39;;;;;;;11.63;2.30;;;8.50;78.00;;;;;;5094884;28;20512;-85
2023/05/18 00:10:06;;;;;;;7.22;1.70;;;8.50;78.60;;;;;;5095249;28;20051;-85
2023/05/18 00:12:32;;;;;;;7.68;2.05;;;8.50;78.80;;;;;;5112658;28;20047;-85
2023/05/18 00:14:57;;;;;;;7.50;1.75;;;8.50;78.80;;;;;;5112579;28;20031;-85
2023/05/18 00:17:23;;;;;;;9.65;2.50;;;8.50;78.90;;;;;;5095588;28;20081;-85
2023/05/18 00:19:49;;;;;;;10.68;2.00;;;8.50;79.20;;;;;;5111991;28;20059;-85
2023/05/18 00:22:18;;;;;;;8.10;1.45;;;8.50;79.50;;;;;;5095371;28;20080;-85
2023/05/18 00:24:45;;;;;;;8.50;1.88;;;8.50;80.30;;;;;;5112388;28;20039;-85
2023/05/18 00:27:11;;;;;;;7.68;1.73;;;8.50;80.30;;;;;;5113198;28;20051;-85
2023/05/18 00:29:37;;;;;;;10.35;1.70;;;8.40;80.50;;;;;;5113018;28;20401;-85
2023/05/18 00:32:02;;;;;;;9.63;2.20;;;8.40;80.80;;;;;;5113583;28;20028;-85
2023/05/18 00:34:28;;;;;;;10.90;1.80;;;8.40;81.00;;;;;;5113385;28;20088;-85
2023/05/18 00:36:54;;;;;;;7.50;1.75;;;8.40;81.10;;;;;;5113340;28;20042;-85
2023/05/18 00:39:19;;;;;;;8.45;1.60;;;8.30;81.80;;;;;;5113051;28;20386;-85
2023/05/18 00:41:45;;;;;;;4.15;1.50;;;8.20;82.30;;;;;;5112840;28;20042;-85
2023/05/18 00:44:11;;;;;;;6.00;1.73;;;8.20;83.00;;;;;;5113081;28;20435;-85
2023/05/18 00:46:36;;;;;;;10.15;2.25;;;8.10;83.10;;;;;;5113043;28;20039;-85
2023/05/18 00:49:02;;;;;;;10.45;1.92;;;8.10;84.00;;;;;;5113028;28;20169;-85
2023/05/18 00:51:30;;;;;;;7.63;1.85;;;8.10;84.70;;;;;;5112860;28;20028;-85
2023/05/18 00:53:57;;;;;;;8.45;2.05;;;8.10;84.80;;;;;;5112994;28;20050;-85
2023/05/18 00:56:23;;;;;;;9.32;1.83;;;8.00;85.10;;;;;;5112586;28;20036;-85
2023/05/18 00:58:54;;;;;;;7.40;1.80;;;8.00;86.00;;;;;;5112729;28;20432;-85
2023/05/18 01:01:27;;;;;;;9.00;2.00;;;7.90;87.10;;;;;;5112742;28;20118;-85
2023/05/18 01:03:55;;;;;;;8.57;2.67;;;7.90;87.30;;;;;;5112753;28;20518;-85
2023/05/18 01:06:24;;;;;;;10.60;2.35;;;7.90;87.90;;;;;;5112768;28;20081;-85
2023/05/18 01:08:52;;;;;;;6.68;1.83;;;7.80;88.40;;;;;;5112625;28;20118;-84
2023/05/18 01:11:55;;;;;;;7.80;2.17;;;7.70;88.70;;;;;;5112148;28;20058;-85
2023/05/18 01:14:28;;;;;;;9.05;2.10;;;7.70;90.50;;;;;;5109338;28;20054;-85
2023/05/18 01:17:13;;;;;;;6.45;1.95;;;7.60;90.30;;;;;;5112654;28;20039;-85
2023/05/18 01:19:50;;;;;;;8.93;1.73;;;7.50;90.70;;;;;;5111762;28;20100;-85
2023/05/18 01:22:51;;;;;;;6.57;1.77;;;7.40;91.20;;;;;;5112598;28;20393;-84
2023/05/18 01:25:30;;;;;;;5.75;1.45;;;7.30;91.50;;;;;;5089357;28;20103;-85
2023/05/18 01:28:05;;;;;;;6.90;1.88;;;7.20;91.80;;;;;;5112494;28;20047;-85
2023/05/18 01:30:38;;;;;;;6.60;1.92;;;7.20;91.90;;;;;;5112316;28;20039;-85
2023/05/18 01:33:11;;;;;;;6.63;1.90;;;7.10;92.00;;;;;;5112490;28;20039;-85
2023/05/18 01:35:40;;;;;;;8.52;1.67;;;6.90;92.90;;;;;;5112327;28;20039;-85
2023/05/18 01:38:06;;;;;;;7.93;1.90;;;6.90;92.90;;;;;;5112090;28;20043;-85
2023/05/18 01:40:39;;;;;;;4.82;1.63;;;6.90;93.20;;;;;;5112200;28;20035;-85
2023/05/18 01:43:12;;;;;;;9.77;2.13;;;6.80;94.00;;;;;;5112376;28;20043;-85
2023/05/18 01:45:42;;;;;;;10.07;2.20;;;6.80;95.00;;;;;;5112464;28;20090;-84
2023/05/18 01:48:10;;;;;;;5.00;1.98;;;6.70;95.70;;;;;;5112119;28;20036;-85
2023/05/18 01:50:41;;;;;;;7.68;2.28;;;6.70;96.20;;;;;;5111890;28;20044;-84
2023/05/18 01:53:18;;;;;;;10.88;2.10;;;6.70;96.60;;;;;;5110933;28;20688;-84
2023/05/18 01:55:46;;;;;;;7.03;2.13;;;6.70;97.90;;;;;;5112313;28;20110;-85
2023/05/18 01:58:12;;;;;;;9.68;2.90;;;6.70;96.90;;;;;;5112038;28;20044;-84
2023/05/18 02:00:38;;;;;;;9.68;1.98;;;6.70;96.20;;;;;;5111817;28;20043;-84
2023/05/18 02:03:04;;;;;;;11.55;2.88;;;6.70;96.80;;;;;;5111976;28;20035;-85
2023/05/18 02:05:30;;;;;;;8.32;2.40;;;6.70;96.70;;;;;;5112012;28;20035;-85
2023/05/18 02:07:56;;;;;;;6.68;2.05;;;6.70;96.80;;;;;;5112091;28;20046;-84
2023/05/18 02:10:22;;;;;;;6.70;1.80;;;6.60;97.80;;;;;;5111563;28;20040;-85
2023/05/18 02:12:51;;;;;;;9.07;2.00;;;6.60;97.90;;;;;;5112062;28;20055;-85
2023/05/18 02:15:17;;;;;;;10.18;2.15;;;6.60;99.10;;;;;;5111909;28;20046;-84
2023/05/18 02:17:42;;;;;;;6.78;2.00;;;6.50;99.90;;;;;;5110595;28;20401;-85
2023/05/18 02:20:08;;;;;;;14.82;2.42;;;6.50;99.60;;;;;;5111778;28;20039;-85
2023/05/18 02:22:35;;;;;;;8.10;2.17;;;6.50;99.70;;;;;;5111788;28;20400;-85
2023/05/18 02:25:06;;;;;;;4.03;1.60;;;6.50;99.80;;;;;;5111967;28;20043;-85
2023/05/18 02:27:32;;;;;;;7.60;2.00;;;6.50;99.90;;;;;;5111791;28;20036;-85
2023/05/18 02:29:58;;;;;;;7.93;1.50;;;6.40;99.90;;;;;;5113647;28;20057;-85
2023/05/18 02:32:23;;;;;;;7.38;1.77;;;6.40;99.90;;;;;;5115626;28;20027;-85
2023/05/18 02:34:52;;;;;;;5.15;1.77;;;6.30;99.90;;;;;;5115839;28;20044;-85
2023/05/18 02:37:18;;;;;;;5.90;1.83;;;6.30;99.90;;;;;;5115694;28;20097;-85
2023/05/18 02:39:43;;;;;;;7.22;2.60;;;6.20;99.90;;;;;;5115168;28;20048;-85
2023/05/18 02:42:09;;;;;;;6.93;2.55;;;6.20;99.90;;;;;;5115620;28;20075;-85
2023/05/18 02:44:35;;;;;;;5.38;1.77;;;6.10;99.90;;;;;;5115514;28;20457;-85
2023/05/18 02:47:00;;;;;;;6.18;2.10;;;6.10;99.90;;;;;;5115222;28;20063;-85
2023/05/18 02:49:26;;;;;;;6.28;1.90;;;6.00;99.90;;;;;;5115407;28;20555;-85
2023/05/18 02:51:51;;;;;;;6.45;2.00;;;6.00;99.90;;;;;;5115409;28;20040;-85
2023/05/18 02:54:17;;;;;;;10.35;1.95;;;5.90;99.90;;;;;;5115243;28;20460;-85
2023/05/18 02:56:42;;;;;;;10.38;1.98;;;5.90;99.90;;;;;;5115327;28;20088;-85
2023/05/18 02:59:08;;;;;;;12.45;2.42;;;5.90;99.90;;;;;;5115027;28;20071;-85
2023/05/18 03:01:36;;;;;;;6.28;2.25;;;5.80;99.90;;;;;;5113532;28;20108;-85
2023/05/18 03:04:01;;;;;;;9.10;2.50;;;5.80;99.90;;;;;;5115249;28;20039;-85
2023/05/18 03:06:29;;;;;;;7.85;2.15;;;5.80;99.90;;;;;;5115186;28;20058;-84
2023/05/18 03:08:55;;;;;;;8.25;1.95;;;5.80;99.90;;;;;;5115054;28;20443;-85
2023/05/18 03:11:25;;;;;;;8.48;2.20;;;5.80;99.90;;;;;;5114642;28;20080;-85
2023/05/18 03:13:51;;;;;;;9.50;1.75;;;5.90;99.90;;;;;;5114857;28;20044;-85
2023/05/18 03:16:17;;;;;;;9.55;2.05;;;5.80;99.90;;;;;;5115118;28;20127;-84
2023/05/18 03:18:43;;;;;;;4.55;1.55;;;5.80;99.90;;;;;;5114825;28;20039;-85
2023/05/18 03:21:08;;;;;;;7.65;1.95;;;5.80;99.90;;;;;;5114585;28;20039;-85
2023/05/18 03:23:34;;;;;;;6.22;1.75;;;5.70;99.90;;;;;;5114775;28;20024;-85
2023/05/18 03:26:01;;;;;;;7.90;2.00;;;5.70;99.90;;;;;;5114549;28;20526;-85
2023/05/18 03:28:27;;;;;;;8.52;2.10;;;5.70;99.90;;;;;;5114541;28;20044;-85
2023/05/18 03:30:54;;;;;;;7.97;1.83;;;5.70;99.90;;;;;;5114541;28;20036;-85
2023/05/18 03:33:19;;;;;;;5.35;1.73;;;5.60;99.90;;;;;;5113266;28;20461;-85
2023/05/18 03:35:45;;;;;;;6.93;1.90;;;5.60;99.90;;;;;;5114573;28;20043;-85
2023/05/18 03:38:10;;;;;;;5.80;2.10;;;5.60;99.90;;;;;;5114390;28;20051;-85
2023/05/18 03:40:36;;;;;;;5.72;2.28;;;5.50;99.90;;;;;;5113116;28;20392;-85
2023/05/18 03:43:02;;;;;;;9.82;2.72;;;5.60;99.90;;;;;;5114058;28;20078;-85
2023/05/18 03:45:27;;;;;;;6.95;2.03;;;5.50;99.90;;;;;;5114281;28;20070;-84
2023/05/18 03:47:53;;;;;;;9.32;2.72;;;5.50;99.90;;;;;;5114271;28;20512;-85
2023/05/18 03:50:18;;;;;;;6.93;2.08;;;5.50;99.90;;;;;;5114062;28;20106;-85
2023/05/18 03:52:44;;;;;;;7.85;1.88;;;5.50;99.90;;;;;;5114275;28;20039;-85
2023/05/18 03:55:10;;;;;;;7.25;2.20;;;5.40;99.90;;;;;;5114015;28;20253;-84
2023/05/18 03:57:36;;;;;;;8.23;1.80;;;5.40;99.90;;;;;;5113743;28;20577;-85
2023/05/18 04:00:10;;;;;;;5.82;1.60;;;5.40;99.90;;;;;;5113671;28;20035;-84
2023/05/18 04:02:36;;;;;;;6.68;1.48;;;5.40;99.90;;;;;;5079138;28;20040;-86
2023/05/18 04:05:02;;;;;;;10.45;2.47;;;5.40;99.90;;;;;;5113983;28;20042;-86
2023/05/18 04:07:28;;;;;;;5.15;1.67;;;5.30;99.90;;;;;;5113855;28;20039;-86
2023/05/18 04:09:55;;;;;;;4.07;1.73;;;5.30;99.90;;;;;;5113428;28;20118;-86
2023/05/18 04:12:21;;;;;;;4.22;1.77;;;5.30;99.90;;;;;;5113689;28;20040;-86
2023/05/18 04:14:49;;;;;;;5.05;1.40;;;5.30;99.90;;;;;;5113888;28;20044;-85
2023/05/18 04:17:16;;;;;;;5.15;1.90;;;5.40;99.90;;;;;;5113789;28;20079;-85
2023/05/18 04:19:42;;;;;;;4.50;1.42;;;5.30;99.90;;;;;;5113128;28;20465;-86
2023/05/18 04:22:08;;;;;;;7.10;2.22;;;5.40;99.90;;;;;;5113649;28;20071;-86
2023/05/18 04:24:34;;;;;;;6.53;2.85;;;5.40;99.90;;;;;;5113491;28;20035;-86
2023/05/18 04:27:01;;;;;;;7.07;1.92;;;5.40;99.90;;;;;;5113169;28;20412;-86
2023/05/18 04:29:27;;;;;;;5.47;1.58;;;5.40;99.90;;;;;;5113384;28;20127;-86
2023/05/18 04:31:58;;;;;;;4.43;1.45;;;5.40;99.90;;;;;;5113380;28;20038;-86
2023/05/18 04:34:25;;;;;;;6.03;1.95;;;5.40;99.90;;;;;;5113310;28;20492;-86
2023/05/18 04:36:53;;;;;;;8.63;2.63;;;5.40;99.90;;;;;;5113399;28;20067;-85
2023/05/18 04:39:22;;;;;;;7.80;2.15;;;5.50;99.90;;;;;;5113011;28;20040;-85
2023/05/18 04:41:49;;;;;;;6.18;2.00;;;5.50;99.90;;;;;;5112933;28;20500;-86
2023/05/18 04:44:17;;;;;;;7.93;2.20;;;5.50;99.90;;;;;;5095145;28;20114;-86
2023/05/18 04:46:46;;;;;;;12.25;2.35;;;5.60;99.90;;;;;;5113067;28;20123;-85
2023/05/18 04:49:12;;;;;;;6.80;1.98;;;5.60;99.90;;;;;;5112971;28;20035;-86
2023/05/18 04:51:38;;;;;;;5.72;1.95;;;5.70;99.90;;;;;;5077525;28;20176;-85
2023/05/18 04:54:05;;;;;;;5.88;1.98;;;5.70;99.90;;;;;;5112655;28;20115;-86
2023/05/18 04:56:30;;;;;;;11.07;2.25;;;5.70;99.90;;;;;;5113068;28;20036;-86
2023/05/18 04:58:58;;;;;;;4.85;1.70;;;5.70;99.90;;;;;;5112641;28;20383;-86
2023/05/18 05:01:24;;;;;;;7.32;2.03;;;5.80;99.90;;;;;;5112470;28;20477;-86
2023/05/18 05:03:49;;;;;;;7.47;2.10;;;5.80;99.90;;;;;;5112856;28;20046;-86
2023/05/18 05:06:15;;;;;;;5.00;1.85;;;5.90;99.90;;;;;;5094456;28;20118;-86
2023/05/18 05:08:41;;;;;;;6.43;2.00;;;5.90;99.90;;;;;;5112522;28;20096;-86
2023/05/18 05:11:06;;;;;;;7.03;2.00;;;6.00;99.90;;;;;;5112264;28;20115;-86
2023/05/18 05:13:34;;;;;;;10.75;2.28;;;6.00;99.90;;;;;;5112761;28;20035;-86
2023/05/18 05:16:00;;;;;;;6.75;2.38;;;6.00;99.90;;;;;;5112565;28;20561;-85
2023/05/18 05:18:26;;;;;;;5.85;1.90;;;6.10;99.90;;;;;;5112310;28;20051;-86
2023/05/18 05:20:52;;;;;;;9.00;2.08;;;6.20;99.90;;;;;;5112253;28;20032;-86
2023/05/18 05:23:18;;;;;;;5.13;1.67;;;6.20;99.90;;;;;;5112361;28;20044;-86
2023/05/18 05:25:44;;;;;;;4.93;1.75;;;6.30;99.90;;;;;;5094359;28;20035;-86
2023/05/18 05:28:09;;;;;;;5.85;1.80;;;6.40;99.90;;;;;;5112497;28;20044;-85
2023/05/18 05:30:35;;;;;;;6.72;1.83;;;6.50;99.90;;;;;;5112217;28;20441;-86
2023/05/18 05:33:01;;;;;;;5.38;1.80;;;6.50;99.90;;;;;;5112442;28;20499;-86
2023/05/18 05:35:26;;;;;;;7.00;2.17;;;6.60;99.90;;;;;;5112244;28;20075;-86
2023/05/18 05:37:52;;;;;;;5.88;2.08;;;6.70;99.90;;;;;;5112116;28;20092;-85
2023/05/18 05:40:17;;;;;;;7.15;1.83;;;6.80;99.90;;;;;;5112162;28;20123;-86
2023/05/18 05:42:43;;;;;;;7.28;1.77;;;6.90;99.90;;;;;;5112400;28;20374;-86
2023/05/18 05:45:09;;;;;;;15.45;2.90;;;7.00;99.90;;;;;;5114937;28;20386;-86
2023/05/18 05:47:35;;;;;;;6.78;1.88;;;7.10;99.90;;;;;;5118000;28;20073;-86
2023/05/18 05:50:00;;;;;;;7.03;1.70;;;7.20;99.90;;;;;;5121953;28;20114;-86
2023/05/18 05:52:29;;;;;;;11.13;2.28;;;7.30;99.90;;;;;;5122376;28;20031;-86
2023/05/18 05:54:55;;;;;;;8.35;1.90;;;7.40;99.90;;;;;;5121009;28;20032;-86
2023/05/18 05:57:20;;;;;;;5.90;1.77;;;7.50;99.90;;;;;;5123306;28;20036;-86
2023/05/18 05:59:46;;;;;;;5.95;1.42;;;7.60;99.90;;;;;;5115710;28;20061;-86
2023/05/18 06:02:12;;;;;;;8.05;1.73;;;7.70;99.90;;;;;;5093809;28;20043;-86
2023/05/18 06:04:37;;;;;;;8.50;1.90;;;7.70;99.90;;;;;;5113348;28;20035;-86
2023/05/18 06:07:03;;;;;;;7.90;2.15;;;7.80;99.90;;;;;;5115964;28;20036;-86
2023/05/18 06:09:29;;;;;;;8.15;1.83;;;7.90;99.90;;;;;;5116030;28;20082;-86
2023/05/18 06:11:55;;;;;;;9.32;1.63;;;8.00;99.90;;;;;;5124049;27;20074;-86
2023/05/18 06:14:20;;;;;;;6.47;1.50;;;8.10;99.90;;;;;;5106611;27;20104;-86
2023/05/18 06:16:46;;;;;;;8.38;1.83;;;8.20;99.90;;;;;;5130635;27;20499;-86
2023/05/18 06:19:12;;;;;;;8.25;1.60;;;8.30;99.90;;;;;;5136292;27;20031;-86
2023/05/18 06:21:38;;;;;;;8.48;2.22;;;8.40;99.90;;;;;;5136162;27;20079;-86
2023/05/18 06:24:04;;;;;;;10.25;2.25;;;8.50;99.90;;;;;;5136604;27;20377;-86
2023/05/18 06:26:30;;;;;;;4.93;1.75;;;8.60;99.60;;;;;;5136590;27;20034;-86
2023/05/18 06:28:56;;;;;;;6.70;1.75;;;8.60;99.00;;;;;;5118173;27;20092;-86
2023/05/18 06:31:22;;;;;;;10.93;1.88;;;8.70;98.90;;;;;;5136010;27;20504;-86
2023/05/18 06:33:48;;;;;;;5.90;1.52;;;8.80;98.90;;;;;;5136200;27;20123;-86
2023/05/18 06:36:15;;;;;;;5.40;1.40;;;8.80;98.80;;;;;;5136111;27;20042;-86
2023/05/18 06:38:40;;;;;;;8.13;1.70;;;8.90;98.20;;;;;;5136241;27;20047;-85
2023/05/18 06:41:06;;;;;;;7.97;1.60;;;8.90;97.40;;;;;;5136040;27;20035;-85
2023/05/18 06:43:31;;;;;;;8.40;1.52;;;9.00;96.80;;;;;;5136143;27;20396;-85
2023/05/18 06:45:57;;;;;;;12.00;2.03;;;9.10;96.20;;;;;;5134728;27;20488;-86
2023/05/18 06:48:26;;;;;;;9.10;1.77;;;9.10;95.30;;;;;;5132357;27;20531;-86
2023/05/18 06:50:51;;;;;;;6.43;1.58;;;9.20;94.60;;;;;;5131638;27;20484;-86
2023/05/18 06:53:17;;;;;;;6.18;1.65;;;9.20;93.70;;;;;;5113904;27;20096;-85
2023/05/18 06:55:43;;;;;;;8.93;1.83;;;9.30;93.10;;;;;;5114476;27;20110;-86
2023/05/18 06:58:08;;;;;;;8.60;1.58;;;9.30;92.60;;;;;;5132258;27;20092;-86
2023/05/18 07:00:34;;;;;;;12.80;2.03;;;9.30;92.20;;;;;;5132177;27;20146;-85
2023/05/18 07:03:00;;;;;;;13.13;1.55;;;9.40;91.80;;;;;;5131687;27;20043;-86
2023/05/18 07:05:26;;;;;;;6.20;1.85;;;9.40;91.10;;;;;;5132344;27;20088;-86
2023/05/18 07:07:52;;;;;;;9.00;1.75;;;9.50;91.00;;;;;;5132258;27;20027;-86
2023/05/18 07:10:18;;;;;;;9.02;2.13;;;9.50;90.80;;;;;;5131851;27;20057;-86
2023/05/18 07:12:43;;;;;;;7.18;1.73;;;9.60;90.80;;;;;;5113745;27;20050;-86
2023/05/18 07:15:10;;;;;;;7.13;1.90;;;9.70;90.50;;;;;;5133063;27;20039;-86
2023/05/18 07:17:37;;;;;;;6.80;1.65;;;9.80;90.30;;;;;;5135191;27;20095;-86
2023/05/18 07:20:05;;;;;;;6.93;1.73;;;9.90;89.70;;;;;;5135091;27;20122;-86
2023/05/18 07:22:31;;;;;;;7.00;1.50;;;9.90;89.00;;;;;;5135501;27;20031;-86
2023/05/18 07:24:57;;;;;;;9.73;1.80;;;10.10;88.90;;;;;;5135477;27;20114;-86
2023/05/18 07:27:23;;;;;;;7.60;1.80;;;10.20;88.20;;;;;;5135264;27;20039;-86
2023/05/18 07:29:49;;;;;;;9.82;1.73;;;10.20;87.90;;;;;;5135000;27;20407;-86
2023/05/18 07:32:15;;;;;;;7.68;1.67;;;10.30;87.20;;;;;;5135046;27;20081;-86
2023/05/18 07:34:42;;;;;;;7.78;1.73;;;10.40;87.30;;;;;;5135259;27;20476;-86
2023/05/18 07:37:08;;;;;;;7.85;2.00;;;10.50;87.30;;;;;;5128579;27;20400;-86
2023/05/18 07:39:34;;;;;;;8.00;1.67;;;10.60;86.90;;;;;;5123355;27;20039;-86
2023/05/18 07:42:01;;;;;;;9.30;1.90;;;10.70;86.00;;;;;;5125356;27;20507;-86
2023/05/18 07:44:26;;;;;;;8.40;1.98;;;10.70;85.10;;;;;;5123400;27;20044;-86
2023/05/18 07:46:52;;;;;;;8.13;1.88;;;10.80;84.70;;;;;;5128750;27;20118;-86
2023/05/18 07:49:18;;;;;;;11.50;1.63;;;10.80;84.00;;;;;;5099445;27;20039;-86
2023/05/18 07:51:43;;;;;;;8.80;2.15;;;10.90;83.50;;;;;;5134467;27;20050;-86
2023/05/18 07:54:09;;;;;;;10.50;2.17;;;11.00;83.30;;;;;;5134629;27;20042;-86
2023/05/18 07:56:35;;;;;;;7.50;1.98;;;11.00;83.10;;;;;;5134727;27;20031;-86
2023/05/18 07:59:00;;;;;;;10.10;1.65;;;11.10;82.80;;;;;;5134414;27;20043;-86
2023/05/18 08:01:28;;;;;;;7.45;1.77;;;11.20;82.10;;;;;;5134068;27;20031;-86
2023/05/18 08:03:55;;;;;;;6.15;1.50;;;11.20;81.50;;;;;;5113913;27;20468;-86
2023/05/18 08:06:21;;;;;;;4.50;1.48;;;11.20;81.00;;;;;;5123174;27;20028;-86
2023/05/18 08:08:46;;;;;;;6.78;2.17;;;11.20;80.70;;;;;;5120902;27;20412;-86
2023/05/18 08:11:12;;;;;;;12.00;2.40;;;11.30;80.70;;;;;;5114172;27;20134;-86
2023/05/18 08:13:38;;;;;;;8.38;2.28;;;11.30;79.70;;;;;;5125451;27;20054;-86
2023/05/18 08:16:03;;;;;;;7.32;2.10;;;11.40;79.30;;;;;;5133910;27;20035;-86
2023/05/18 08:18:29;;;;;;;7.07;1.52;;;11.40;79.20;;;;;;5134122;27;20042;-86
2023/05/18 08:20:55;;;;;;;7.30;1.65;;;11.40;79.10;;;;;;5134131;27;20031;-86
2023/05/18 08:23:22;;;;;;;9.45;1.90;;;11.60;78.70;;;;;;5127879;27;20031;-86
2023/05/18 08:25:47;;;;;;;8.18;1.98;;;11.60;78.80;;;;;;5123902;27;20110;-86
2023/05/18 08:28:13;;;;;;;10.30;1.98;;;11.70;78.70;;;;;;5123126;27;20256;-86
2023/05/18 08:30:39;;;;;;;6.28;1.95;;;11.90;78.90;;;;;;5116199;27;20409;-86
2023/05/18 08:33:04;;;;;;;13.10;3.28;;;12.10;78.30;;;;;;5113535;28;20042;-86
2023/05/18 08:35:31;;;;;;;8.38;1.90;;;12.40;77.10;;;;;;5113490;28;20089;-86
2023/05/18 08:37:56;;;;;;;9.07;1.60;;;12.50;76.60;;;;;;5113222;28;20040;-86
2023/05/18 08:40:31;;;;;;;10.10;2.90;;;12.60;76.70;;;;;;5094997;28;20397;-86
2023/05/18 08:43:10;;;;;;;9.13;2.30;;;12.70;75.70;;;;;;5113202;28;20487;-86
2023/05/18 08:45:53;;;;;;;6.70;1.67;;;12.70;75.70;;;;;;5113232;28;20417;-86
2023/05/18 08:48:22;;;;;;;8.55;2.08;;;12.60;74.80;;;;;;5113074;28;20050;-86
2023/05/18 08:50:52;;;;;;;9.30;2.47;;;12.70;75.60;;;;;;5112864;28;20049;-86
2023/05/18 08:53:23;;;;;;;5.75;1.55;;;12.80;74.30;;;;;;5113058;28;20043;-86
2023/05/18 08:55:52;;;;;;;6.93;1.80;;;12.80;74.10;;;;;;5094656;28;20075;-86
2023/05/18 08:58:20;;;;;;;11.13;2.95;;;12.90;74.80;;;;;;5112916;28;20040;-87
2023/05/18 09:00:45;;;;;;;6.57;1.60;;;13.00;73.70;;;;;;5094493;28;20666;-86
2023/05/18 09:03:13;;;;;;;9.88;2.38;;;13.10;73.90;;;;;;5112807;28;20522;-87
2023/05/18 09:05:40;;;;;;;6.38;2.17;;;13.10;74.50;;;;;;5094653;28;20039;-87
2023/05/18 09:08:06;;;;;;;9.60;2.05;;;13.10;74.40;;;;;;5094660;28;20515;-86
2023/05/18 09:10:32;;;;;;;8.65;2.75;;;13.20;73.90;;;;;;5112501;28;20031;-87
2023/05/18 09:12:58;;;;;;;9.02;1.85;;;13.20;73.80;;;;;;5077804;28;20047;-87
2023/05/18 09:15:25;;;;;;;11.02;2.95;;;13.40;74.10;;;;;;5112764;28;20035;-86
2023/05/18 09:17:51;;;;;;;11.23;2.15;;;13.60;72.50;;;;;;5112394;28;20070;-86
2023/05/18 09:20:18;;;;;;;9.57;2.60;;;13.70;72.70;;;;;;5112271;28;20040;-86
2023/05/18 09:22:44;;;;;;;11.05;3.10;;;13.80;71.40;;;;;;5094203;28;20400;-87
2023/05/18 09:25:10;;;;;;;7.13;1.83;;;13.90;70.10;;;;;;5112669;28;20036;-86
2023/05/18 09:27:36;;;;;;;10.20;2.72;;;14.00;71.00;;;;;;5112408;28;20035;-86
2023/05/18 09:30:02;;;;;;;10.32;3.00;;;14.10;71.30;;;;;;5112104;28;20522;-86
2023/05/18 09:32:33;;;;;;;9.27;3.13;;;14.30;71.40;;;;;;5112362;28;20039;-86
2023/05/18 09:35:03;;;;;;;10.15;2.50;;;14.50;69.10;;;;;;5112319;28;20111;-86
2023/05/18 09:37:30;;;;;;;8.43;2.10;;;14.50;67.40;;;;;;5112222;28;20047;-86
2023/05/18 09:40:00;;;;;;;11.57;2.53;;;14.30;68.50;;;;;;5111101;28;20044;-87
2023/05/18 09:42:36;;;;;;;8.98;1.98;;;14.40;68.50;;;;;;5112283;28;20075;-86
2023/05/18 09:45:02;;;;;;;11.45;3.20;;;14.50;68.70;;;;;;5112324;28;20086;-87
2023/05/18 09:47:28;;;;;;;10.50;3.03;;;14.60;67.70;;;;;;5112108;28;20043;-86
2023/05/18 09:49:56;;;;;;;9.38;2.17;;;14.70;67.30;;;;;;5112120;28;20040;-86
2023/05/18 09:52:22;;;;;;;8.07;2.22;;;14.60;67.90;;;;;;5112108;28;20392;-86
2023/05/18 09:54:58;;;;;;;11.30;3.00;;;14.70;68.60;;;;;;5112264;28;20047;-87
2023/05/18 09:57:24;;;;;;;7.43;2.15;;;14.90;68.20;;;;;;5112165;28;20463;-87
2023/05/18 10:00:05;;;;;;;9.60;2.75;;;14.90;67.80;;;;;;5111713;28;20536;-86
2023/05/18 10:02:31;;;;;;;9.95;2.90;;;15.00;67.20;;;;;;5093841;28;20052;-87
2023/05/18 10:04:57;;;;;;;9.40;2.22;;;15.00;66.30;;;;;;5112212;28;20036;-87
2023/05/18 10:07:23;;;;;;;7.85;2.67;;;15.10;66.60;;;;;;5093568;28;20083;-87
2023/05/18 10:10:02;;;;;;;12.52;2.90;;;15.10;66.50;;;;;;5111629;28;20071;-87
2023/05/18 10:12:28;;;;;;;11.52;2.72;;;15.20;65.10;;;;;;5111950;28;20077;-86
2023/05/18 10:14:54;;;;;;;10.30;2.53;;;15.30;65.30;;;;;;5093675;28;20036;-87
2023/05/18 10:17:20;;;;;;;8.95;2.25;;;15.30;66.10;;;;;;5111980;28;20046;-87
2023/05/18 10:19:49;;;;;;;9.65;2.67;;;15.30;65.90;;;;;;5111619;28;20092;-86
2023/05/18 10:22:16;;;;;;;10.50;3.13;;;15.40;64.50;;;;;;5111876;28;20075;-86
2023/05/18 10:24:45;;;;;;;6.55;1.83;;;15.50;64.60;;;;;;5093604;28;20063;-87
2023/05/18 10:27:13;;;;;;;9.02;2.83;;;15.50;65.20;;;;;;5093415;28;20496;-87
2023/05/18 10:29:40;;;;;;;10.23;3.20;;;15.70;64.90;;;;;;5093355;28;20035;-87
2023/05/18 10:32:09;;;;;;;11.02;2.85;;;15.70;63.70;;;;;;5111963;28;20433;-86
2023/05/18 10:34:37;;;;;;;10.70;3.10;;;15.80;63.90;;;;;;5111844;28;20044;-87
2023/05/18 10:37:05;;;;;;;9.85;2.75;;;15.80;62.90;;;;;;5111988;28;20048;-87
2023/05/18 10:39:34;;;;;;;9.90;2.78;;;15.90;62.90;;;;;;5111416;28;20107;-87
2023/05/18 10:42:01;;;;;;;7.50;2.38;;;15.90;62.80;;;;;;5111567;28;20046;-87
2023/05/18 10:44:28;;;;;;;9.23;2.92;;;15.90;63.30;;;;;;5093395;28;20036;-86
2023/05/18 10:46:54;;;;;;;9.13;3.10;;;15.90;62.20;;;;;;5111556;28;20500;-86
2023/05/18 10:49:24;;;;;;;9.35;3.05;;;15.90;62.40;;;;;;5111457;28;20118;-87
2023/05/18 10:51:53;;;;;;;10.50;3.10;;;16.00;63.00;;;;;;5096339;28;20090;-86
2023/05/18 10:54:19;;;;;;;11.73;3.13;;;16.00;62.40;;;;;;5115234;28;20085;-86
2023/05/18 10:56:50;;;;;;;9.88;2.95;;;16.10;62.40;;;;;;5097341;28;20200;-87
2023/05/18 10:59:17;;;;;;;9.90;2.80;;;16.20;61.00;;;;;;5115089;28;20568;-86
2023/05/18 11:01:44;;;;;;;10.15;2.78;;;16.30;61.80;;;;;;5115080;28;20045;-87
2023/05/18 11:04:10;;;;;;;9.68;2.90;;;16.40;62.40;;;;;;5115229;28;20044;-87
2023/05/18 11:06:37;;;;;;;9.48;2.90;;;16.40;61.60;;;;;;5115250;28;20378;-86
2023/05/18 11:09:02;;;;;;;9.57;2.97;;;16.50;61.10;;;;;;5114862;28;20051;-86
2023/05/18 11:11:29;;;;;;;10.35;3.00;;;16.60;61.60;;;;;;5114590;28;20036;-86
2023/05/18 11:14:00;;;;;;;11.52;3.20;;;16.60;61.60;;;;;;5115118;28;20097;-87
2023/05/18 11:16:38;;;;;;;8.95;3.05;;;16.70;62.20;;;;;;5096707;28;20047;-86
2023/05/18 11:19:05;;;;;;;9.98;3.03;;;16.80;62.10;;;;;;5114632;28;20378;-87
2023/05/18 11:21:50;;;;;;;11.48;3.33;;;16.90;61.60;;;;;;5114416;28;20032;-87
2023/05/18 11:24:30;;;;;;;11.50;4.50;;;17.10;61.20;;;;;;5096503;28;20075;-87
2023/05/18 11:27:02;;;;;;;9.75;3.38;;;17.20;60.40;;;;;;5114709;28;20035;-87
2023/05/18 11:29:32;;;;;;;7.70;3.03;;;17.10;59.20;;;;;;5114427;28;20488;-86
2023/05/18 11:31:58;;;;;;;11.48;3.17;;;17.20;59.00;;;;;;5115045;28;20088;-87
2023/05/18 11:34:36;;;;;;;11.73;3.25;;;17.20;58.30;;;;;;5114767;28;20039;-87
2023/05/18 11:37:02;;;;;;;10.63;2.95;;;17.30;59.40;;;;;;5096139;28;20501;-87
2023/05/18 11:39:28;;;;;;;9.50;2.95;;;17.40;59.20;;;;;;5114220;28;20046;-87
2023/05/18 11:42:04;;;;;;;11.80;3.60;;;17.50;59.20;;;;;;5096254;28;20027;-87
2023/05/18 11:44:31;;;;;;;12.25;5.07;;;17.50;59.00;;;;;;5114135;28;20412;-87
2023/05/18 11:47:07;;;;;;;10.93;3.50;;;17.60;59.30;;;;;;5079245;28;20382;-87
2023/05/18 11:49:46;;;;;;;11.52;3.50;;;17.80;60.00;;;;;;5114080;28;20039;-87
2023/05/18 11:52:23;;;;;;;9.02;2.65;;;18.00;60.60;;;;;;5114361;28;20036;-87
2023/05/18 11:54:53;;;;;;;9.90;2.85;;;18.10;58.60;;;;;;5113989;28;20505;-87
2023/05/18 11:57:25;;;;;;;9.07;3.10;;;18.20;59.50;;;;;;5114261;28;20027;-87
2023/05/18 11:59:58;;;;;;;9.48;3.17;;;18.30;59.20;;;;;;5095591;28;20047;-87
2023/05/18 12:02:29;;;;;;;;;;;18.30;58.30;;;;;;5095404;28;20036;-87
2023/05/18 12:05:01;;;;;;;9.68;2.95;;;18.30;58.80;;;;;;5095787;28;19922;-87
2023/05/18 12:07:29;;;;;;;9.60;2.90;;;18.40;57.80;;;;;;5095562;28;20114;-87
2023/05/18 12:10:07;;;;;;;10.35;2.95;;;18.40;56.80;;;;;;5095345;28;20098;-87
2023/05/18 12:12:33;;;;;;;9.85;3.05;;;18.50;57.00;;;;;;5113968;28;20078;-87
2023/05/18 12:15:00;;;;;;;8.73;2.88;;;18.70;58.10;;;;;;5113831;28;20043;-87
2023/05/18 12:17:40;;;;;;;10.27;3.17;;;18.80;57.40;;;;;;5113649;28;20122;-86
2023/05/18 12:20:17;;;;;;;9.32;3.00;;;18.90;57.90;;;;;;5095097;28;20048;-87
2023/05/18 12:22:45;;;;;;;11.32;3.30;;;19.00;57.80;;;;;;5095813;28;20512;-87
2023/05/18 12:25:11;;;;;;;9.02;3.03;;;19.20;57.20;;;;;;5113544;28;20039;-87
2023/05/18 12:27:42;;;;;;;9.75;3.05;;;19.30;56.10;;;;;;5113451;28;20401;-87
2023/05/18 12:30:15;;;;;;;8.23;2.95;;;19.30;56.50;;;;;;5078237;28;20093;-87
2023/05/18 12:32:50;;;;;;;;;;;19.50;57.10;;;;;;5079048;28;20074;-87
2023/05/18 12:35:16;;;;;;;9.10;3.00;;;19.40;56.30;;;;;;5113479;28;19916;-87
2023/05/18 12:37:46;;;;;;;10.38;3.00;;;19.50;56.80;;;;;;5113298;28;20035;-87
2023/05/18 12:40:16;;;;;;;9.70;3.05;;;19.60;55.80;;;;;;5077686;28;20047;-87
2023/05/18 12:42:55;;;;;;;9.52;2.92;;;19.70;55.60;;;;;;5078096;28;20040;-87
2023/05/18 12:45:26;;;;;;;10.25;2.95;;;19.90;57.00;;;;;;5113108;28;20409;-86
2023/05/18 12:47:53;;;;;;;8.50;2.60;;;20.00;55.90;;;;;;5113117;28;20043;-87
2023/05/18 12:50:20;;;;;;;9.98;3.17;;;20.10;56.30;;;;;;5094709;28;20047;-87
2023/05/18 12:52:49;;;;;;;11.48;3.25;;;20.20;55.80;;;;;;5113091;28;20346;-87